Time;durP1;ratioP1;P1;durP2;ratioP2;P2;SDS_P1;SDS_P2;PMS_P1;PMS_P2;Temp;Humidity;BMP_temperature;BMP_pressure;BME280_temperature;BME280_humidity;BME280_pressure;Samples;Min_cycle;Max_cycle;Signal;HPM_P1;HPM_P2
2024/01/19 00:00:45;;;;;;;47.80;19.50;;;;;;;-3.56;87.57;99865.59;110838;1209;139197;-65
2024/01/19 00:03:10;;;;;;;48.50;16.70;;;;;;;-3.57;87.36;99873.96;111042;1209;99006;-64
2024/01/19 00:05:36;;;;;;;49.70;19.80;;;;;;;-3.63;87.51;99878.67;110965;1206;139244;-64
2024/01/19 00:08:02;;;;;;;49.60;19.90;;;;;;;-3.69;87.38;99880.59;111135;1216;99012;-64
2024/01/19 00:10:27;;;;;;;48.00;18.30;;;;;;;-3.71;87.54;99888.27;111152;1208;99031;-64
2024/01/19 00:12:52;;;;;;;52.80;19.90;;;;;;;-3.71;87.61;99891.94;110888;1208;138929;-64
2024/01/19 00:15:17;;;;;;;31.30;13.60;;;;;;;-3.70;87.44;99901.35;111003;1208;99280;-64
2024/01/19 00:17:43;;;;;;;52.50;21.60;;;;;;;-3.73;87.48;99904.33;111089;1208;139427;-64
2024/01/19 00:20:11;;;;;;;48.90;17.80;;;;;;;-3.81;87.55;99903.77;111137;1208;99040;-64
2024/01/19 00:22:37;;;;;;;47.80;18.10;;;;;;;-3.81;87.65;99907.62;111101;1209;99781;-64
2024/01/19 00:25:02;;;;;;;50.10;18.50;;;;;;;-3.86;87.35;99907.25;110873;1209;138776;-64
2024/01/19 00:27:29;;;;;;;50.70;19.10;;;;;;;-3.95;87.53;99910.19;111167;1206;99549;-64
2024/01/19 00:29:55;;;;;;;51.60;20.60;;;;;;;-4.00;87.35;99917.67;111147;1206;138852;-64
2024/01/19 00:32:20;;;;;;;54.60;19.20;;;;;;;-4.00;87.79;99918.90;111168;1206;98923;-64
2024/01/19 00:34:47;;;;;;;42.70;18.40;;;;;;;-3.96;87.87;99920.66;111176;1205;139924;-65
2024/01/19 00:37:14;;;;;;;52.80;18.20;;;;;;;-3.94;87.80;99924.15;111049;1209;115700;-64
2024/01/19 00:39:40;;;;;;;37.60;14.80;;;;;;;-3.97;87.86;99920.66;111199;1206;99950;-64
2024/01/19 00:42:05;;;;;;;48.80;19.10;;;;;;;-4.00;87.35;99924.48;110953;1212;140187;-64
2024/01/19 00:44:30;;;;;;;52.60;20.50;;;;;;;-4.08;87.51;99925.15;111193;1206;99043;-64
2024/01/19 00:46:55;;;;;;;41.10;18.00;;;;;;;-4.10;87.74;99926.37;110946;1208;139650;-65
2024/01/19 00:49:21;;;;;;;49.00;19.50;;;;;;;-4.11;87.60;99932.12;111201;1208;99056;-64
2024/01/19 00:51:46;;;;;;;51.20;19.60;;;;;;;-4.12;87.83;99936.65;111135;1206;98967;-64
2024/01/19 00:54:13;;;;;;;48.10;19.50;;;;;;;-4.17;87.50;99943.78;111057;1206;139220;-64
2024/01/19 00:56:38;;;;;;;45.20;18.50;;;;;;;-4.19;87.68;99948.48;111153;1206;100120;-65
2024/01/19 00:59:03;;;;;;;44.70;17.80;;;;;;;-4.19;87.41;99957.20;111023;1206;140175;-64
2024/01/19 01:01:29;;;;;;;60.70;21.00;;;;;;;-4.26;87.66;99963.27;111164;1209;99077;-63
2024/01/19 01:03:55;;;;;;;62.40;21.40;;;;;;;-4.30;87.54;99964.64;111083;1206;99399;-63
2024/01/19 01:06:20;;;;;;;52.90;19.50;;;;;;;-4.30;87.44;99968.30;110947;1206;138797;-63
2024/01/19 01:08:45;;;;;;;50.40;19.10;;;;;;;-4.35;87.46;99980.48;111176;1208;99008;-66
2024/01/19 01:11:11;;;;;;;58.60;20.90;;;;;;;-4.43;87.47;99985.49;111044;1206;138949;-63
2024/01/19 01:13:36;;;;;;;50.20;19.30;;;;;;;-4.41;87.58;99996.66;111239;1206;99019;-63
2024/01/19 01:16:02;;;;;;;51.70;20.60;;;;;;;-4.41;87.68;99997.19;111142;1208;99142;-63
2024/01/19 01:18:27;;;;;;;49.60;19.60;;;;;;;-4.45;87.52;99994.55;110951;1210;139058;-64
2024/01/19 01:20:52;;;;;;;56.70;20.00;;;;;;;-4.48;87.44;99993.83;111150;1208;101342;-63
2024/01/19 01:23:18;;;;;;;52.30;19.40;;;;;;;-4.51;87.51;99992.59;110948;1206;141008;-64
2024/01/19 01:25:44;;;;;;;48.00;18.40;;;;;;;-4.52;87.63;99996.94;111138;1208;98999;-63
2024/01/19 01:28:09;;;;;;;57.90;19.80;;;;;;;-4.56;87.36;99996.21;111070;1206;98947;-63
2024/01/19 01:30:35;;;;;;;46.90;20.50;;;;;;;-4.61;87.31;100001.23;110987;1206;139031;-64
2024/01/19 01:33:00;;;;;;;53.20;20.80;;;;;;;-4.62;87.35;99998.95;111206;1204;99034;-63
2024/01/19 01:35:25;;;;;;;51.60;19.40;;;;;;;-4.61;87.41;99992.88;110982;1206;139196;-64
2024/01/19 01:37:51;;;;;;;58.40;19.60;;;;;;;-4.61;87.56;99996.52;111141;1206;97803;-64
2024/01/19 01:40:16;;;;;;;48.00;18.30;;;;;;;-4.59;87.61;99998.29;111126;1208;99050;-65
2024/01/19 01:42:41;;;;;;;47.70;19.60;;;;;;;-4.61;87.52;99998.10;111031;1206;139074;-64
2024/01/19 01:45:07;;;;;;;46.90;19.00;;;;;;;-4.64;87.43;99994.93;111125;1206;98892;-65
2024/01/19 01:47:32;;;;;;;54.50;19.70;;;;;;;-4.67;87.51;100001.20;111004;1208;139316;-65
2024/01/19 01:49:59;;;;;;;59.50;21.00;;;;;;;-4.69;87.55;100002.05;111170;1209;98967;-65
2024/01/19 01:52:25;;;;;;;44.00;16.80;;;;;;;-4.66;87.55;100004.67;111074;1206;99374;-64
2024/01/19 01:54:52;;;;;;;43.10;17.80;;;;;;;-4.66;87.49;100005.20;111031;1211;139375;-64
2024/01/19 01:57:20;;;;;;;55.30;21.00;;;;;;;-4.63;87.73;100008.89;111065;1208;98928;-64
2024/01/19 01:59:47;;;;;;;48.60;18.70;;;;;;;-4.61;87.85;100019.54;111092;1206;139321;-64
2024/01/19 02:02:15;;;;;;;45.20;18.40;;;;;;;-4.59;87.73;100022.69;111045;1206;98948;-64
2024/01/19 02:04:40;;;;;;;40.10;15.60;;;;;;;-4.59;87.69;100024.79;111091;1206;98992;-65
2024/01/19 02:07:06;;;;;;;43.40;17.20;;;;;;;-4.60;87.87;100024.08;111012;1206;139058;-65
2024/01/19 02:09:32;;;;;;;45.30;18.30;;;;;;;-4.63;87.58;100023.88;111120;1206;99007;-65
2024/01/19 02:11:58;;;;;;;45.90;18.70;;;;;;;-4.68;87.38;100024.89;110923;1206;139370;-65
2024/01/19 02:14:24;;;;;;;46.30;18.20;;;;;;;-4.68;87.32;100021.91;111140;1206;99027;-65
2024/01/19 02:16:49;;;;;;;46.80;19.30;;;;;;;-4.68;87.88;100023.33;110986;1206;139961;-64
2024/01/19 02:19:15;;;;;;;46.00;18.40;;;;;;;-4.62;87.88;100030.16;111077;1206;99108;-65
2024/01/19 02:21:40;;;;;;;49.50;18.30;;;;;;;-4.63;87.51;100041.83;111089;1206;99059;-65
2024/01/19 02:24:14;;;;;;;48.90;17.10;;;;;;;-4.72;87.36;100050.99;110996;1208;139191;-65
2024/01/19 02:26:40;;;;;;;50.50;18.40;;;;;;;-4.80;87.41;100050.76;111134;1209;112326;-65
2024/01/19 02:29:06;;;;;;;52.90;20.40;;;;;;;-4.83;87.56;100052.98;111008;1206;139674;-65
2024/01/19 02:31:31;;;;;;;37.60;14.80;;;;;;;-4.87;87.40;100056.09;111120;1209;99015;-65
2024/01/19 02:33:57;;;;;;;60.80;19.90;;;;;;;-4.90;87.27;100055.02;111115;1206;100095;-65
2024/01/19 02:36:23;;;;;;;48.40;18.70;;;;;;;-4.92;87.74;100055.53;110972;1209;139932;-65
2024/01/19 02:38:48;;;;;;;52.60;19.50;;;;;;;-4.92;87.51;100057.27;111239;1206;99091;-65
2024/01/19 02:41:14;;;;;;;55.40;20.60;;;;;;;-4.94;87.44;100063.35;110967;1206;140420;-65
2024/01/19 02:43:40;;;;;;;53.30;19.10;;;;;;;-4.98;87.58;100065.22;111148;1208;99801;-65
2024/01/19 02:46:06;;;;;;;49.60;18.30;;;;;;;-4.95;87.63;100068.91;111309;1206;98947;-65
2024/01/19 02:48:32;;;;;;;58.10;22.50;;;;;;;-4.93;87.71;100072.59;110943;1208;139213;-65
2024/01/19 02:50:57;;;;;;;51.00;19.40;;;;;;;-4.92;87.56;100074.69;111009;1206;99190;-65
2024/01/19 02:53:22;;;;;;;44.60;18.30;;;;;;;-4.94;87.52;100071.02;111073;1209;140441;-65
2024/01/19 02:55:47;;;;;;;51.10;18.50;;;;;;;-4.93;87.83;100073.98;111110;1206;99029;-65
2024/01/19 02:58:13;;;;;;;54.20;20.10;;;;;;;-4.94;87.33;100075.55;111109;1208;99089;-64
2024/01/19 03:00:39;;;;;;;51.90;19.10;;;;;;;-4.97;87.20;100079.87;111015;1206;139340;-65
2024/01/19 03:03:04;;;;;;;51.70;19.30;;;;;;;-5.02;87.73;100083.31;111161;1206;98929;-65
2024/01/19 03:05:30;;;;;;;50.00;18.80;;;;;;;-5.05;87.39;100080.83;111071;1208;139541;-65
2024/01/19 03:07:55;;;;;;;50.90;20.00;;;;;;;-5.10;87.24;100087.22;111080;1206;99021;-65
2024/01/19 03:10:20;;;;;;;54.30;20.80;;;;;;;-5.10;87.42;100090.36;111094;1206;97806;-65
2024/01/19 03:12:46;;;;;;;54.80;20.40;;;;;;;-5.07;87.41;100091.09;111034;1205;139175;-65
2024/01/19 03:15:11;;;;;;;50.40;19.30;;;;;;;-5.01;87.72;100096.03;111090;1208;98930;-64
2024/01/19 03:17:36;;;;;;;59.60;20.70;;;;;;;-5.00;87.66;100099.70;111065;1206;139384;-65
2024/01/19 03:20:02;;;;;;;59.20;20.90;;;;;;;-4.98;87.82;100103.38;111135;1206;99039;-64
2024/01/19 03:22:28;;;;;;;50.00;19.70;;;;;;;-4.96;87.69;100104.96;111152;1206;99178;-65
2024/01/19 03:24:53;;;;;;;59.20;21.60;;;;;;;-4.92;87.53;100110.77;111001;1208;139593;-65
2024/01/19 03:27:19;;;;;;;58.40;20.80;;;;;;;-4.89;87.70;100115.84;111121;1206;98969;-64
2024/01/19 03:29:44;;;;;;;56.30;20.70;;;;;;;-4.83;87.86;100119.21;111031;1206;140174;-65
2024/01/19 03:32:10;;;;;;;56.60;20.30;;;;;;;-4.79;87.73;100122.55;111032;1206;99372;-65
2024/01/19 03:34:36;;;;;;;61.40;21.30;;;;;;;-4.82;87.53;100118.70;111143;1206;98915;-64
2024/01/19 03:37:03;;;;;;;54.10;19.10;;;;;;;-4.84;87.58;100117.98;111087;1208;140297;-65
2024/01/19 03:39:32;;;;;;;58.40;22.50;;;;;;;-4.83;87.58;100115.20;111060;1209;103155;-65
2024/01/19 03:41:58;;;;;;;60.20;20.90;;;;;;;-4.82;87.52;100117.31;110923;1208;139854;-65
2024/01/19 03:44:24;;;;;;;65.60;23.20;;;;;;;-4.88;87.59;100120.20;111056;1206;98982;-64
2024/01/19 03:46:50;;;;;;;57.40;19.80;;;;;;;-4.88;87.60;100120.56;111077;1210;140370;-65
2024/01/19 03:49:15;;;;;;;65.20;21.20;;;;;;;-4.84;87.83;100121.46;111144;1206;100353;-65
2024/01/19 03:52:07;;;;;;;58.20;22.00;;;;;;;-4.83;87.65;100126.36;111066;1206;99936;-65
2024/01/19 03:54:33;;;;;;;54.40;19.50;;;;;;;-4.84;87.83;100128.78;110966;1206;139746;-65
2024/01/19 03:57:00;;;;;;;77.80;23.00;;;;;;;-4.85;87.68;100127.21;111124;1208;99486;-65
2024/01/19 03:59:27;;;;;;;56.10;19.40;;;;;;;-4.88;87.58;100129.96;110955;1208;139393;-66
2024/01/19 04:01:53;;;;;;;58.80;21.10;;;;;;;-4.93;87.69;100131.14;111380;1206;98944;-65
2024/01/19 04:04:18;;;;;;;54.40;20.60;;;;;;;-4.98;87.76;100131.08;111251;1209;99040;-65
2024/01/19 04:06:44;;;;;;;55.60;20.70;;;;;;;-4.98;87.73;100132.99;111036;1208;139487;-65
2024/01/19 04:09:09;;;;;;;57.50;20.50;;;;;;;-5.00;87.70;100134.89;111098;1211;99098;-64
2024/01/19 04:11:36;;;;;;;59.10;21.90;;;;;;;-5.03;87.64;100131.90;110960;1206;139085;-65
2024/01/19 04:14:01;;;;;;;57.90;20.10;;;;;;;-5.06;87.77;100134.30;111153;1208;99033;-65
2024/01/19 04:16:26;;;;;;;57.60;20.40;;;;;;;-5.08;87.55;100139.33;111151;1206;98918;-65
2024/01/19 04:18:52;;;;;;;53.90;21.10;;;;;;;-5.09;87.75;100144.20;110946;1206;139171;-65
2024/01/19 04:21:17;;;;;;;48.40;18.30;;;;;;;-5.07;87.74;100150.14;111116;1206;98999;-64
2024/01/19 04:23:44;;;;;;;50.50;19.00;;;;;;;-5.06;87.85;100154.67;110962;1206;140530;-65
2024/01/19 04:26:10;;;;;;;61.40;21.80;;;;;;;-5.04;87.90;100162.71;111110;1208;98937;-65
2024/01/19 04:28:35;;;;;;;43.60;18.70;;;;;;;-5.01;87.73;100161.88;111063;1208;99053;-65
2024/01/19 04:31:00;;;;;;;48.20;19.60;;;;;;;-4.97;87.94;100167.85;110982;1219;139553;-65
2024/01/19 04:33:25;;;;;;;55.00;19.70;;;;;;;-4.94;87.84;100172.77;110966;1206;99025;-64
2024/01/19 04:35:51;;;;;;;55.30;19.50;;;;;;;-4.96;87.77;100174.49;111029;1206;139115;-65
2024/01/19 04:38:16;;;;;;;43.00;17.60;;;;;;;-4.96;87.90;100180.59;111020;1206;99840;-65
2024/01/19 04:40:41;;;;;;;48.80;18.60;;;;;;;-4.97;87.69;100182.66;111187;1206;98934;-65
2024/01/19 04:43:06;;;;;;;58.90;20.80;;;;;;;-4.99;88.00;100180.38;111141;1206;138907;-65
2024/01/19 04:45:32;;;;;;;47.00;18.70;;;;;;;-4.98;87.90;100186.30;111105;1208;99055;-65
2024/01/19 04:47:57;;;;;;;47.00;17.90;;;;;;;-4.98;87.80;100186.48;111029;1205;139394;-66
2024/01/19 04:50:22;;;;;;;56.80;19.30;;;;;;;-4.99;87.69;100197.63;111062;1208;99070;-65
2024/01/19 04:52:47;;;;;;;47.10;19.40;;;;;;;-5.03;87.72;100191.99;111074;1208;139451;-68
2024/01/19 04:55:13;;;;;;;48.50;18.00;;;;;;;-5.04;87.79;100192.86;111085;1206;98922;-65
2024/01/19 04:57:38;;;;;;;50.50;17.80;;;;;;;-5.02;87.59;100191.48;111168;1206;99142;-64
2024/01/19 05:00:04;;;;;;;44.40;17.50;;;;;;;-5.05;87.81;100195.63;111058;1208;139645;-64
2024/01/19 05:02:32;;;;;;;43.70;16.60;;;;;;;-5.07;87.83;100196.14;111074;1206;98950;-66
2024/01/19 05:05:01;;;;;;;42.60;17.00;;;;;;;-5.06;87.94;100199.28;111099;1208;140930;-66
2024/01/19 05:07:27;;;;;;;40.50;15.80;;;;;;;-5.07;87.66;100198.22;111218;1209;99040;-66
2024/01/19 05:09:52;;;;;;;41.30;15.10;;;;;;;-5.08;87.67;100197.85;111335;1206;99652;-66
2024/01/19 05:12:18;;;;;;;42.30;15.20;;;;;;;-5.12;87.79;100197.80;111209;1206;140381;-66
2024/01/19 05:14:45;;;;;;;50.10;16.60;;;;;;;-5.10;87.87;100195.20;111254;1206;99406;-66
2024/01/19 05:17:11;;;;;;;41.70;16.20;;;;;;;-5.06;87.94;100198.58;111114;1208;140101;-66
2024/01/19 05:19:36;;;;;;;47.10;17.00;;;;;;;-5.03;87.98;100200.18;111269;1206;98919;-66
2024/01/19 05:22:01;;;;;;;34.60;14.50;;;;;;;-5.01;87.81;100201.42;111330;1206;99031;-66
2024/01/19 05:24:27;;;;;;;41.90;15.00;;;;;;;-5.00;87.85;100205.62;111104;1206;139151;-66
2024/01/19 05:26:52;;;;;;;44.20;15.10;;;;;;;-5.00;87.93;100209.11;111327;1206;100455;-66
2024/01/19 05:29:18;;;;;;;39.60;14.20;;;;;;;-4.99;87.82;100210.52;111116;1206;141546;-67
2024/01/19 05:31:43;;;;;;;42.80;16.10;;;;;;;-5.02;88.03;100211.52;111300;1206;99380;-66
2024/01/19 05:34:08;;;;;;;39.60;15.60;;;;;;;-5.04;87.78;100214.80;111382;1209;99025;-66
2024/01/19 05:36:33;;;;;;;39.40;16.00;;;;;;;-5.08;87.67;100215.62;111125;1206;139312;-66
2024/01/19 05:38:59;;;;;;;40.40;15.60;;;;;;;-5.10;87.90;100215.95;111314;1206;98916;-66
2024/01/19 05:41:24;;;;;;;40.80;15.80;;;;;;;-5.11;87.90;100222.20;111120;1208;139857;-66
2024/01/19 05:43:49;;;;;;;35.70;14.80;;;;;;;-5.10;87.81;100219.79;111314;1205;97393;-66
2024/01/19 05:46:15;;;;;;;35.00;13.30;;;;;;;-5.12;87.58;100221.67;111212;1206;112496;-66
2024/01/19 05:48:40;;;;;;;41.80;15.00;;;;;;;-5.14;87.94;100221.46;111086;1206;139292;-66
2024/01/19 05:51:13;;;;;;;33.80;14.50;;;;;;;-5.13;87.90;100225.65;111240;1209;99015;-66
2024/01/19 05:53:38;;;;;;;35.60;12.50;;;;;;;-5.10;87.95;100230.23;111069;1206;139186;-66
2024/01/19 05:56:04;;;;;;;40.90;14.20;;;;;;;-5.12;87.78;100232.13;111182;1211;99088;-67
2024/01/19 05:58:29;;;;;;;40.80;14.90;;;;;;;-5.13;88.04;100236.80;111172;1205;99049;-67
2024/01/19 06:00:54;;;;;;;38.90;14.90;;;;;;;-5.11;87.80;100239.98;111066;1208;138970;-67
2024/01/19 06:03:19;;;;;;;36.80;14.90;;;;;;;-5.12;87.91;100240.48;111299;1205;100152;-67
2024/01/19 06:05:45;;;;;;;39.10;15.20;;;;;;;-5.10;87.70;100244.68;110986;1209;140525;-64
2024/01/19 06:08:10;;;;;;;40.30;14.10;;;;;;;-5.09;87.90;100242.95;111107;1205;99843;-64
2024/01/19 06:10:35;;;;;;;42.90;16.80;;;;;;;-5.10;87.84;100241.20;111052;1206;99418;-64
2024/01/19 06:13:00;;;;;;;43.90;16.40;;;;;;;-5.13;87.62;100242.21;110956;1206;140801;-64
2024/01/19 06:15:26;;;;;;;43.50;17.10;;;;;;;-5.12;87.85;100244.32;111114;1206;99053;-64
2024/01/19 06:17:51;;;;;;;37.20;16.10;;;;;;;-5.10;87.96;100242.42;110939;1209;139355;-64
2024/01/19 06:20:16;;;;;;;51.80;17.70;;;;;;;-5.13;87.75;100248.48;111100;1206;98989;-62
2024/01/19 06:22:43;;;;;;;40.30;15.10;;;;;;;-5.16;87.85;100250.89;111047;1205;99076;-64
2024/01/19 06:25:09;;;;;;;38.20;15.30;;;;;;;-5.17;87.76;100252.60;111027;1210;139459;-67
2024/01/19 06:27:34;;;;;;;40.00;13.80;;;;;;;-5.17;87.95;100258.89;111186;1206;98896;-67
2024/01/19 06:30:00;;;;;;;33.70;13.60;;;;;;;-5.19;87.79;100266.52;111144;1209;139345;-67
2024/01/19 06:32:25;;;;;;;38.70;14.30;;;;;;;-5.23;87.67;100268.41;111166;1206;98919;-66
2024/01/19 06:34:50;;;;;;;42.00;16.60;;;;;;;-5.23;87.80;100277.29;111011;1209;139202;-67
2024/01/19 06:37:15;;;;;;;43.20;15.70;;;;;;;-5.24;87.69;100280.92;110983;1206;98890;-67
2024/01/19 06:39:40;;;;;;;41.40;15.70;;;;;;;-5.24;87.59;100282.86;111161;1211;99098;-66
2024/01/19 06:42:06;;;;;;;27.60;10.70;;;;;;;-5.27;87.88;100279.33;110880;1205;139307;-65
2024/01/19 06:44:35;;;;;;;47.50;16.40;;;;;;;-5.30;87.74;100282.42;110998;1209;99052;-66
2024/01/19 06:47:00;;;;;;;40.50;14.90;;;;;;;-5.32;87.68;100278.55;111082;1205;140051;-66
2024/01/19 06:49:26;;;;;;;43.10;14.40;;;;;;;-5.32;87.84;100277.34;110993;1206;98932;-66
2024/01/19 06:51:51;;;;;;;42.60;14.40;;;;;;;-5.31;87.72;100279.96;111309;1209;98958;-66
2024/01/19 06:54:17;;;;;;;38.30;14.00;;;;;;;-5.34;87.62;100283.23;111170;1209;138969;-66
2024/01/19 06:56:43;;;;;;;35.80;14.20;;;;;;;-5.35;87.71;100282.34;111295;1206;98970;-66
2024/01/19 06:59:09;;;;;;;35.90;13.30;;;;;;;-5.35;87.83;100280.08;111085;1206;139976;-66
2024/01/19 07:01:38;;;;;;;32.50;14.50;;;;;;;-5.34;87.80;100280.61;111090;1206;98896;-66
2024/01/19 07:04:04;;;;;;;39.90;16.00;;;;;;;-5.36;87.69;100277.63;111203;1206;99456;-65
2024/01/19 07:06:29;;;;;;;35.80;12.80;;;;;;;-5.37;87.65;100276.73;111005;1209;139723;-66
2024/01/19 07:08:54;;;;;;;44.30;15.00;;;;;;;-5.39;87.82;100277.92;111359;1206;98946;-66
2024/01/19 07:11:20;;;;;;;43.30;14.90;;;;;;;-5.39;87.76;100276.71;111172;1205;139210;-66
2024/01/19 07:13:45;;;;;;;28.30;11.30;;;;;;;-5.37;87.75;100273.61;111315;1206;99145;-66
2024/01/19 07:16:11;;;;;;;42.80;15.20;;;;;;;-5.37;87.81;100272.92;111198;1206;99040;-66
2024/01/19 07:18:36;;;;;;;36.00;13.90;;;;;;;-5.39;87.80;100275.66;111099;1206;139207;-66
2024/01/19 07:21:01;;;;;;;42.00;15.50;;;;;;;-5.37;87.73;100278.82;111300;1206;98938;-67
2024/01/19 07:23:27;;;;;;;43.60;15.70;;;;;;;-5.37;87.69;100277.09;111132;1206;140881;-68
2024/01/19 07:25:52;;;;;;;45.30;14.60;;;;;;;-5.36;87.77;100275.36;111297;1209;99053;-69
2024/01/19 07:28:17;;;;;;;38.90;14.30;;;;;;;-5.32;87.75;100272.98;111240;1206;98921;-67
2024/01/19 07:30:43;;;;;;;40.40;13.80;;;;;;;-5.31;87.77;100283.27;111137;1205;141059;-68
2024/01/19 07:33:08;;;;;;;35.40;14.50;;;;;;;-5.31;87.70;100283.27;111251;1208;98965;-67
2024/01/19 07:35:33;;;;;;;38.00;15.20;;;;;;;-5.31;87.81;100293.89;110930;1206;139819;-66
2024/01/19 07:37:59;;;;;;;41.90;15.30;;;;;;;-5.32;87.52;100288.14;111134;1206;98913;-66
2024/01/19 07:40:25;;;;;;;32.10;12.80;;;;;;;-5.31;87.72;100293.54;111072;1208;99037;-66
2024/01/19 07:42:51;;;;;;;46.70;16.60;;;;;;;-5.33;87.74;100294.91;111042;1206;140101;-66
2024/01/19 07:45:16;;;;;;;38.00;14.20;;;;;;;-5.33;87.73;100302.56;111096;1208;98969;-66
2024/01/19 07:47:42;;;;;;;35.10;13.80;;;;;;;-5.31;87.92;100304.52;111037;1208;138959;-66
2024/01/19 07:50:10;;;;;;;49.40;16.90;;;;;;;-5.32;87.75;100313.55;110914;1206;99191;-66
2024/01/19 07:52:35;;;;;;;40.40;14.70;;;;;;;-5.34;87.88;100309.70;110878;1205;98925;-66
2024/01/19 07:55:00;;;;;;;43.90;15.00;;;;;;;-5.34;87.73;100316.66;110979;1209;139270;-68
2024/01/19 07:57:26;;;;;;;41.90;14.80;;;;;;;-5.35;87.81;100319.09;111032;1209;98925;-68
2024/01/19 07:59:51;;;;;;;36.00;15.60;;;;;;;-5.37;87.70;100319.76;111068;1206;139377;-68
2024/01/19 08:02:16;;;;;;;42.50;16.90;;;;;;;-5.36;87.93;100321.15;111027;1206;108234;-69
2024/01/19 08:04:42;;;;;;;41.60;15.60;;;;;;;-5.34;87.86;100328.33;111103;1209;100363;-66
2024/01/19 08:07:08;;;;;;;38.30;15.10;;;;;;;-5.33;87.80;100324.16;111069;1206;139668;-66
2024/01/19 08:09:33;;;;;;;34.00;13.50;;;;;;;-5.30;88.02;100328.55;111014;1206;99030;-67
2024/01/19 08:11:59;;;;;;;37.40;13.20;;;;;;;-5.29;87.91;100329.79;110900;1209;139704;-67
2024/01/19 08:14:24;;;;;;;42.70;16.00;;;;;;;-5.28;87.89;100323.36;111116;1205;98925;-69
2024/01/19 08:16:49;;;;;;;48.70;17.20;;;;;;;-5.26;87.95;100326.18;111010;1206;139659;-70
2024/01/19 08:19:15;;;;;;;47.10;17.40;;;;;;;-5.23;87.82;100327.27;111134;1208;99345;-70
2024/01/19 08:21:42;;;;;;;34.50;12.80;;;;;;;-5.22;87.94;100332.69;110932;1208;99423;-72
2024/01/19 08:24:08;;;;;;;35.30;15.30;;;;;;;-5.22;87.86;100325.90;111015;1206;139200;-72
2024/01/19 08:26:33;;;;;;;45.10;16.20;;;;;;;-5.20;87.90;100328.52;111061;1208;99035;-72
2024/01/19 08:29:00;;;;;;;31.80;12.20;;;;;;;-5.14;87.93;100335.73;110988;1206;139199;-72
2024/01/19 08:31:30;;;;;;;44.40;14.90;;;;;;;-5.11;88.07;100336.81;111236;1206;98989;-72
2024/01/19 08:33:56;;;;;;;46.80;16.20;;;;;;;-5.10;87.81;100335.09;111103;1206;99013;-72
2024/01/19 08:36:24;;;;;;;41.80;16.70;;;;;;;-5.06;87.98;100337.77;111134;1206;139252;-72
2024/01/19 08:38:55;;;;;;;38.10;14.40;;;;;;;-5.02;88.07;100344.63;111158;1209;99756;-72
2024/01/19 08:41:20;;;;;;;39.40;16.70;;;;;;;-4.99;88.31;100340.14;111032;1208;139278;-71
2024/01/19 08:43:46;;;;;;;34.50;13.50;;;;;;;-4.95;88.08;100345.42;111214;1206;99130;-71
2024/01/19 08:46:11;;;;;;;44.90;15.90;;;;;;;-4.90;88.04;100344.44;111216;1206;98996;-71
2024/01/19 08:48:36;;;;;;;42.90;16.20;;;;;;;-4.87;88.22;100342.57;111172;1206;139648;-71
2024/01/19 08:51:02;;;;;;;45.10;14.20;;;;;;;-4.83;88.03;100347.15;111332;1208;98932;-71
2024/01/19 08:53:29;;;;;;;45.70;16.90;;;;;;;-4.79;88.18;100356.27;111121;1209;139486;-71
2024/01/19 08:55:55;;;;;;;40.90;15.50;;;;;;;-4.76;88.27;100355.79;111202;1206;98937;-72
2024/01/19 08:58:20;;;;;;;42.10;16.00;;;;;;;-4.73;88.20;100355.65;111170;1211;98993;-73
2024/01/19 09:00:46;;;;;;;50.20;17.60;;;;;;;-4.69;88.03;100359.90;111314;1206;139298;-70
2024/01/19 09:03:11;;;;;;;40.10;15.10;;;;;;;-4.67;88.21;100358.71;110990;1206;98992;-70
2024/01/19 09:05:37;;;;;;;46.10;16.70;;;;;;;-4.65;88.25;100363.78;111200;1206;139523;-70
2024/01/19 09:08:03;;;;;;;48.10;17.40;;;;;;;-4.65;88.09;100364.84;111212;1205;107399;-70
2024/01/19 09:10:29;;;;;;;42.40;14.50;;;;;;;-4.63;88.26;100367.30;111209;1206;98925;-70
2024/01/19 09:12:55;;;;;;;41.40;15.70;;;;;;;-4.59;88.13;100364.56;111068;1205;139271;-70
2024/01/19 09:15:23;;;;;;;40.00;15.40;;;;;;;-4.58;88.25;100365.62;111411;1206;98980;-70
2024/01/19 09:17:48;;;;;;;44.20;16.10;;;;;;;-4.56;88.42;100364.08;110996;1206;139141;-70
2024/01/19 09:20:14;;;;;;;37.60;15.00;;;;;;;-4.51;88.31;100368.85;111204;1206;99255;-70
2024/01/19 09:22:39;;;;;;;45.00;18.30;;;;;;;-4.47;88.51;100373.60;111339;1206;98961;-70
2024/01/19 09:25:05;;;;;;;36.80;14.50;;;;;;;-4.44;88.52;100373.65;111146;1208;140833;-70
2024/01/19 09:27:30;;;;;;;41.10;15.80;;;;;;;-4.40;88.60;100379.81;111043;1206;100458;-71
2024/01/19 09:29:55;;;;;;;43.50;16.90;;;;;;;-4.36;88.72;100379.67;110961;1206;139589;-71
2024/01/19 09:32:20;;;;;;;43.00;17.00;;;;;;;-4.31;88.39;100379.39;111095;1206;99010;-71
2024/01/19 09:34:46;;;;;;;42.40;15.30;;;;;;;-4.27;88.49;100381.54;111348;1206;98950;-71
2024/01/19 09:37:11;;;;;;;45.80;16.80;;;;;;;-4.23;88.56;100378.96;110999;1209;141255;-71
2024/01/19 09:39:37;;;;;;;34.30;14.60;;;;;;;-4.20;88.45;100379.01;111158;1206;98982;-72
2024/01/19 09:42:06;;;;;;;30.30;14.20;;;;;;;-4.13;88.46;100382.92;111054;1206;139248;-73
2024/01/19 09:44:36;;;;;;;36.80;14.70;;;;;;;-4.07;88.61;100387.36;111129;1206;107174;-72
2024/01/19 09:47:20;;;;;;;36.80;14.80;;;;;;;-4.01;88.68;100383.92;110907;1211;139423;-72
2024/01/19 09:50:02;;;;;;;43.50;15.10;;;;;;;-3.97;88.73;100388.52;111073;1206;101368;-71
2024/01/19 09:52:35;;;;;;;33.80;13.80;;;;;;;-3.92;88.61;100391.36;111020;1206;112445;-71
2024/01/19 09:55:01;;;;;;;44.60;16.60;;;;;;;-3.87;88.48;100399.27;110983;1209;139157;-72
2024/01/19 09:57:30;;;;;;;46.30;16.00;;;;;;;-3.83;88.66;100393.38;111035;1209;99216;-69
2024/01/19 09:59:55;;;;;;;37.10;15.50;;;;;;;-3.77;88.97;100396.23;110987;1206;139632;-72
2024/01/19 10:02:22;;;;;;;38.10;14.80;;;;;;;-3.72;88.70;100395.24;111127;1206;99322;-71
2024/01/19 10:04:49;;;;;;;31.40;13.00;;;;;;;-3.67;88.61;100399.14;111062;1208;98935;-72
2024/01/19 10:07:15;;;;;;;36.50;14.60;;;;;;;-3.63;88.85;100399.17;111017;1206;138839;-71
2024/01/19 10:09:41;;;;;;;35.50;15.00;;;;;;;-3.58;88.81;100403.58;110968;1210;99050;-71
2024/01/19 10:12:07;;;;;;;31.60;12.40;;;;;;;-3.54;88.73;100405.20;110994;1205;139090;-72
2024/01/19 10:14:33;;;;;;;43.90;15.90;;;;;;;-3.51;88.69;100396.50;111225;1209;99043;-69
2024/01/19 10:16:59;;;;;;;30.40;12.60;;;;;;;-3.47;88.74;100395.31;110917;1208;139233;-71
2024/01/19 10:19:24;;;;;;;33.10;13.60;;;;;;;-3.41;89.07;100402.70;111010;1218;98730;-71
2024/01/19 10:21:52;;;;;;;38.90;15.30;;;;;;;-3.36;88.64;100406.41;111115;1212;99041;-71
2024/01/19 10:24:21;;;;;;;41.10;15.80;;;;;;;-3.33;89.11;100407.83;110910;1206;139106;-71
2024/01/19 10:26:55;;;;;;;29.30;11.90;;;;;;;-3.29;88.85;100410.33;111129;1206;106231;-72
2024/01/19 10:29:21;;;;;;;36.10;15.00;;;;;;;-3.22;88.85;100404.61;110925;1206;139466;-70
2024/01/19 10:31:49;;;;;;;31.60;13.40;;;;;;;-3.18;89.01;100407.09;111141;1206;99587;-67
2024/01/19 10:34:19;;;;;;;38.00;14.50;;;;;;;-3.16;88.81;100404.48;111192;1206;99040;-69
2024/01/19 10:36:45;;;;;;;27.40;12.00;;;;;;;-3.10;88.94;100405.77;110971;1206;139905;-69
2024/01/19 10:39:29;;;;;;;34.10;14.90;;;;;;;-3.06;88.91;100408.76;111120;1206;99042;-69
2024/01/19 10:42:06;;;;;;;29.00;12.50;;;;;;;-3.00;88.94;100403.91;110978;1206;139384;-71
2024/01/19 10:44:32;;;;;;;38.20;14.70;;;;;;;-2.96;88.85;100402.55;111102;1206;97571;-71
2024/01/19 10:46:58;;;;;;;33.30;12.30;;;;;;;-2.91;89.12;100396.81;111217;1206;140230;-71
2024/01/19 10:49:24;;;;;;;27.90;12.40;;;;;;;-2.87;89.31;100399.30;111163;1211;97887;-71
2024/01/19 10:51:49;;;;;;;34.30;12.30;;;;;;;-2.79;89.10;100406.33;111349;1209;99040;-71
2024/01/19 10:54:26;;;;;;;26.90;11.20;;;;;;;-2.74;89.00;100401.30;111110;1218;139261;-71